Terminal Aerodrome Forecast
Issued by NWS

Home | Current Version | Previous Version | Text Only | Print | Product List | Glossary On
Versions: 1 2 3 4 5 6 7 8 9 10 11 12 13 14
000
FTUS41 KBTV 302320
TAFSLK
TAF
KSLK 302320Z 3100/3124 25004KT P6SM SCT060 OVC200
     FM310400 23005KT P6SM VCSH OVC060
     FM311500 24007KT 5SM -SHRA BR SCT045 OVC070
     FM311800 25007KT P6SM VCSH SCT035 OVC050=

USA.gov is the U.S. government's official web portal to all federal, state and local government web resources and services.